Weather observations for the past three days for
Hebron, Hebron Municipal Airport
Metric (Imperial)
Date Time (cdt) Wind (kph) Vis. (km) Weather Sky Cond. Temperature (ºC) Relative Humidity Wind Chill (°C) Heat Index (°C) Pressure Precipitation (cm)
Air Dwpt 6 hour altimeter (cm) sea level (mb) 1 hr 3 hr 6 hr
Max. Min.
31 08:35 Calm 16.09 Thunderstorm in Vicinity SCT080 SCT110 22.6 18.8 79% 76 0.0 0.03
31 08:15 Calm 16.09 Partly Cloudy SCT090 SCT120 23.4 18.4 74% 76 0.0
31 07:55 Calm 16.09 Partly Cloudy SCT090 SCT120 23.9 17.5 68% 25 76.02 0.0
31 07:35 Calm 16.09 Fair CLR 24 17.1 65% 25 76.02 0.0
31 07:15 W 9 16.09 Fair CLR 24.1 17.8 68% 25 76.02 0.0
31 06:55 NW 9 16.09 Partly Cloudy SCT120 24.5 18.1 25 22.7 68% 25 76.02 0.0
31 06:35 W 13 16.09 Mostly Cloudy BKN120 24.9 18.6 68% 26 76.05 0.0
31 06:15 W 17 16.09 Partly Cloudy SCT100 SCT120 24.7 19.7 74% 26 76.02 0.0
31 05:55 W 9 16.09 Partly Cloudy SCT100 SCT120 24.1 21.3 84% 24 76.02 0.0
31 05:35 W 11 16.09 Fair CLR 24.2 21.5 85% 24 76 0.0
31 05:15 SW 9 16.09 Fair CLR 23.7 21.8 89% 75.97 0.0
31 04:55 W 6 16.09 Fair CLR 23.5 21.8 90% 75.92 0.0
31 04:35 NW 6 16.09 Thunderstorm CLR 23 21.7 92% 75.92 0.0
31 04:15 Calm 16.09 Fair CLR 23.5 21.6 89% 75.9 0.0
31 03:55 Calm 16.09 Fair CLR 23.4 21.6 90% 75.87 0.0
31 03:35 Calm 16.09 Fair CLR 23.1 22 94% 75.87 0.0
31 03:15 Calm 11.27 Fair CLR 22.9 21.9 94% 75.87 0.0
31 02:55 Calm 16.09 Fair CLR 23 22 94% 75.84 0.0
31 02:35 Calm 16.09 Fair CLR 23.3 21.9 92% 75.82 0.0
31 02:15 Calm 16.09 Fair CLR 23.4 21.9 91% 75.84 0.0
31 01:55 Calm 16.09 Fair CLR 23.7 22.3 92% 75.87 0.0
31 01:35 S 7 16.09 Fair CLR 24.1 22.3 90% 24 75.87 0.0
31 01:15 S 6 16.09 Fair CLR 24.6 22.6 89% 25 75.9 0.0
31 00:55 S 11 16.09 Partly Cloudy SCT048 SCT070 SCT100 24.1 23 31.8 23.6 94% 23 75.84 0.0 0.13 0.13
31 00:35 Calm 8.05 Heavy Rain SCT050 SCT070 BKN110 24.5 23 91% 25 75.87 0.0 0.1
31 00:15 Calm 16.09 Partly Cloudy SCT110 23.7 22.5 93% 75.87 0.0
30 23:55 Calm 16.09 Partly Cloudy SCT110 24.2 22.6 91% 24 75.82 0.0
30 23:35 Calm 11.27 Mostly Cloudy BKN110 24.5 22.6 89% 25 75.82 0.0
30 23:15 Calm 16.09 Overcast OVC110 24 22.5 91% 23 75.79 0.0
30 22:55 Calm 16.09 Mostly Cloudy BKN110 24.1 22.4 90% 24 75.79 0.0
30 22:35 Calm 16.09 Fair CLR 24.2 22.3 89% 24 75.79 0.0
30 22:15 Calm 16.09 Fair CLR 24.5 22.4 88% 25 75.82 0.0
30 21:55 Calm 16.09 Fair CLR 24.9 22.5 87% 26 75.82 0.0
30 21:35 Calm 16.09 Fair CLR 24.9 22.5 87% 26 75.79 0.0
30 21:15 Calm 16.09 Fair CLR 25.5 22.6 84% 27 75.77 0.0
30 20:35 Calm 16.09 Fair CLR 26.6 22.9 80% 29 75.74 0.0
30 20:15 Calm 16.09 Fair CLR 27.8 22.7 74% 31 75.72 0.0
30 19:55 Calm 16.09 Fair CLR 29.5 22.4 66% 33 75.72 0.0
30 19:35 Calm 16.09 Fair CLR 30.5 22.2 61% 34 75.72 0.0
30 19:15 Calm 16.09 Fair CLR 31.5 22 57% 35 75.72 0.0
30 18:55 Calm 16.09 Fair CLR 31.9 21.7 34.6 31.8 55% 35 75.72 0.0
30 18:35 N 7 16.09 Fair CLR 32.5 22.2 55% 37 75.72 0.0
30 18:15 N 6 16.09 Fair CLR 32.8 21.5 51% 36 75.69 0.0
30 17:55 N 7 16.09 Fair CLR 33 22.2 53% 37 75.69 0.0
30 17:35 Calm 16.09 Fair CLR 33.2 22.1 52% 37 75.69 0.0
30 17:15 NW 7 16.09 Fair CLR 33.2 21.6 51% 37 75.69 0.0
30 16:55 NW 7 16.09 Fair CLR 33.5 21.9 51% 38 75.69 0.0
30 16:35 NW 7 16.09 Fair CLR 33.1 21.5 51% 37 75.69 0.0
30 16:15 N 11 16.09 Fair CLR 34.1 22.1 50% 38 75.69 0.0
30 15:55 SW 6 16.09 Fair CLR 33.7 19.3 43% 36 75.72 0.0
30 15:35 W 7 16.09 Fair CLR 33.9 18.9 41% 36 75.72 0.0
30 15:15 SW 7 16.09 Fair CLR 34.4 18.6 39% 36 75.74 0.0
30 14:55 SW 6 16.09 Fair CLR 32.9 20.5 48% 36 75.74 0.0
30 14:35 S 7 16.09 Fair CLR 32.1 18.7 45% 33 75.74 0.0
30 14:15 SW 6 16.09 Fair CLR 32.5 18.7 44% 34 75.77 0.0
30 13:55 SW 7 16.09 Fair CLR 33.3 17.7 39% 34 75.79 0.0
30 13:35 W 15 16.09 Fair CLR 33 17.7 40% 34 75.79 0.0
30 13:15 SW 13 16.09 Fair CLR 32.5 18.3 43% 34 75.79 0.0
30 12:55 SW 17 G 28 16.09 Fair CLR 33 16.7 33.1 20.8 38% 33 75.82 0.0
30 12:35 SW 13 16.09 Fair CLR 32.2 17.9 43% 33 75.77 0.0
30 12:15 SW 11 16.09 Fair CLR 30.6 17.9 47% 31 75.79 0.0
30 11:55 SW 7 16.09 Fair CLR 29.4 17.7 49% 30 75.79 0.0
30 11:35 W 22 G 28 16.09 Fair CLR 30.8 17.3 44% 31 75.82 0.0
30 11:15 SW 13 16.09 Partly Cloudy SCT110 30.1 17 45% 30 75.79 0.0
30 10:55 SW 9 16.09 Partly Cloudy SCT110 29.4 17 47% 30 75.79 0.0
30 10:35 SW 15 16.09 Fair CLR 28.8 17.3 50% 29 75.77 0.0
30 10:15 SW 15 16.09 Fair CLR 28.1 16.8 50% 29 75.77 0.0
30 09:55 SW 11 16.09 Fair CLR 27.4 17.6 55% 28 75.77 0.0
30 09:35 SW 11 16.09 Fair CLR 27.2 17.4 55% 28 75.74 0.0
30 09:15 S 11 16.09 Fair CLR 26.8 17.5 57% 28 75.74 0.0
30 08:55 S 15 16.09 Fair CLR 26.1 17.1 58% 27 75.72 0.0
30 08:35 S 11 16.09 Fair CLR 25.3 17.1 61% 26 75.74 0.0
30 08:15 S 7 16.09 Fair CLR 22.8 17.5 72% 75.77 0.0
30 07:55 Calm 16.09 Fair CLR 21 18 83% 75.77 0.0
30 07:35 Calm 16.09 Fair CLR 21.1 18 83% 75.77 0.0
30 07:15 Calm 16.09 Fair CLR 21.3 17.6 80% 75.74 0.0
30 06:55 Calm 16.09 Fair CLR 20.9 17.7 27.5 20.9 82% 75.74 0.0
30 06:35 SE 6 16.09 Fair CLR 21.5 17.9 80% 75.77 0.0
30 06:15 Calm 16.09 Fair CLR 21.9 17.4 76% 75.77 0.0
30 05:55 Calm 16.09 Fair CLR 21.6 17.4 77% 75.79 0.0
30 05:35 Calm 16.09 Fair CLR 23.1 16.8 68% 75.79 0.0
30 05:15 NW 6 16.09 Fair CLR 24 16.4 63% 25 75.82 0.0
30 04:55 Calm 16.09 Fair CLR 25 16.2 58% 26 75.84 0.0
30 04:35 W 7 16.09 Fair CLR 26.5 15.7 52% 27 75.79 0.0
30 04:15 S 17 G 26 16.09 Fair CLR 26.8 15.5 50% 27 75.77 0.0
30 03:55 SW 13 16.09 Fair CLR 26.7 15.5 50% 27 75.77 0.0
30 03:35 S 17 16.09 Fair CLR 26.7 15.5 50% 27 75.77 0.0
30 03:15 S 17 16.09 Fair CLR 26.3 15.5 52% 27 75.77 0.0
30 02:55 S 15 16.09 Fair CLR 26.1 15.6 52% 27 75.77 0.0
30 02:35 S 13 16.09 Fair CLR 26.2 15.5 52% 27 75.77 0.0
30 02:15 S 13 16.09 Fair CLR 26.6 15.5 51% 27 75.77 0.0
30 01:55 S 15 16.09 Fair CLR 26.6 15.4 50% 27 75.77 0.0
30 01:35 S 15 16.09 Fair CLR 26.6 15.5 51% 27 75.77 0.0
30 01:15 S 13 16.09 Fair CLR 27 15.5 49% 27 75.79 0.0
30 00:55 S 15 16.09 Fair CLR 27.5 15.3 32.7 25.6 47% 28 75.79 0.0
30 00:35 S 17 16.09 Fair CLR 27.4 15.3 48% 28 75.77 0.0
30 00:15 S 17 16.09 Fair CLR 27.5 15.5 48% 28 75.77 0.0
29 23:55 S 13 16.09 Fair CLR 27.5 15.6 48% 28 75.77 0.0
29 23:35 S 17 16.09 Fair CLR 27.4 16 50% 28 75.77 0.0
29 23:15 S 15 16.09 Fair CLR 26.8 16.8 54% 27 75.77 0.0
29 22:55 S 11 16.09 Fair CLR 26.8 17.2 56% 28 75.77 0.0
29 22:35 S 11 16.09 Fair CLR 26.1 18 61% 27 75.77 0.0
29 22:15 S 11 16.09 Fair CLR 26 18.5 63% 27 75.77 0.0
29 21:55 S 9 16.09 Fair CLR 25.8 18.7 65% 27 75.77 0.0
29 21:35 S 9 16.09 Fair CLR 26.2 18.8 64% 27 75.74 0.0
29 21:15 S 7 16.09 Fair CLR 27 19 62% 28 75.72 0.0
29 20:55 S 7 16.09 Fair CLR 27 19.1 62% 28 75.69 0.0
29 20:35 S 9 16.09 Fair CLR 28 19 58% 29 75.67 0.0
29 20:15 S 9 16.09 Fair CLR 29 19.2 56% 30 75.67 0.0
29 19:55 S 9 16.09 Fair CLR 29.8 19.7 55% 31 75.67 0.0
29 19:35 S 7 16.09 Fair CLR 31 20.5 54% 33 75.67 0.0
29 19:15 S 9 16.09 Fair CLR 32 21.4 53% 35 75.67 0.0
29 18:55 S 7 16.09 Fair CLR 32.8 21.5 36.3 28.2 51% 36 75.67 0.0
29 18:35 S 7 16.09 Fair CLR 33.9 21.8 49% 38 75.67 0.0
29 18:15 S 11 16.09 Fair CLR 34.3 21.3 47% 38 75.67 0.0
29 17:55 S 13 16.09 Fair CLR 34.8 20.4 43% 38 75.67 0.0
29 17:35 S 9 16.09 Fair CLR 35.3 20.4 42% 38 75.69 0.0
29 17:15 SW 15 16.09 Fair CLR 36.1 18.9 36% 38 75.69 0.0
29 16:55 SW 13 16.09 Fair CLR 36.1 18.5 35% 38 75.69 0.0
29 16:35 SW 13 16.09 Fair CLR 36.2 18.1 34% 38 75.72 0.0
29 16:15 SW 13 G 28 16.09 Fair CLR 36.2 17.8 34% 37 75.72 0.0
29 15:55 SW 22 G 30 16.09 Fair CLR 36.2 16.8 32% 37 75.74 0.0
29 15:35 SW 17 G 30 16.09 Fair CLR 35.9 17.8 34% 37 75.77 0.0
29 15:15 SW 17 G 30 16.09 Fair CLR 35.5 16.8 33% 36 75.77 0.0
29 14:55 SW 26 G 35 16.09 Fair CLR 35.1 17.4 35% 36 75.79 0.0
29 14:35 S 13 16.09 Fair CLR 34 20.4 45% 37 75.82 0.0
29 14:15 S 19 G 28 16.09 Fair CLR 33.4 19.4 44% 35 75.82 0.0
29 13:55 S 11 16.09 Fair CLR 31.6 20.3 51% 34 75.84 0.0
29 13:35 S 15 16.09 Fair CLR 32 19.9 49% 34 75.87 0.0
29 13:15 S 13 16.09 Fair CLR 30 19.3 53% 31 75.9 0.0
29 12:55 S 7 16.09 Fair CLR 27.8 19 27.8 22.1 59% 29 75.92 0.0
29 12:35 S 7 16.09 Fair CLR 27 18 58% 28 75.95 0.0
29 12:15 SW 7 16.09 Fair CLR 26.5 17.4 57% 27 75.95 0.0
29 11:55 SW 6 16.09 Fair CLR 26.1 16.4 55% 27 75.97 0.0
29 11:35 SW 11 16.09 Fair CLR 26 15.8 53% 27 75.97 0.0
29 11:15 S 15 16.09 Fair CLR 26 15.6 53% 27 75.97 0.0
29 10:55 S 13 G 28 16.09 Fair CLR 26.2 15.4 51% 27 75.97 0.0
29 10:35 S 15 16.09 Fair CLR 26.3 15.9 53% 27 75.97 0.0
29 10:15 S 15 16.09 Fair CLR 25.6 14.9 52% 26 75.97 0.0
29 09:55 S 17 G 30 16.09 Fair CLR 25.5 14.6 51% 26 76 0.0
29 09:35 S 19 16.09 Fair CLR 26.1 15 50% 27 76 0.0
29 09:15 S 17 G 28 16.09 Fair CLR 25.2 14.7 52% 26 76.02 0.0
29 08:55 S 15 G 26 16.09 Fair CLR 24.2 14.2 54% 25 76.02 0.0
29 08:35 S 17 G 26 16.09 Fair CLR 23.1 14 57% 76.05 0.0
29 08:15 S 15 16.09 Fair CLR 22.3 13.8 59% 76.05 0.0
29 07:55 S 11 16.09 Fair CLR 22.3 13.3 57% 76.05 0.0
29 07:35 S 15 16.09 Fair CLR 22.1 13.5 58% 76.05 0.0
29 07:15 S 13 16.09 Fair CLR 22.5 13.4 57% 76.05 0.0
29 06:55 S 13 16.09 Fair CLR 22.6 13.5 23.6 22 57% 76.07 0.0
29 06:35 S 13 16.09 Fair CLR 22.5 13.6 57% 76.07 0.0
29 06:15 S 13 16.09 Fair CLR 22.2 13.8 59% 76.07 0.0
29 05:55 S 15 16.09 Fair CLR 22.5 13.7 58% 76.07 0.0
29 05:35 S 17 16.09 Fair CLR 22.2 14 60% 76.1 0.0
29 05:15 S 15 16.09 Fair CLR 22 14 61% 76.12 0.0
29 04:55 S 17 16.09 Fair CLR 22.1 14.2 61% 76.15 0.0
29 04:35 S 13 16.09 Fair CLR 22.2 14.3 61% 76.15 0.0
29 04:15 S 13 16.09 Fair CLR 22.4 14.5 61% 76.15 0.0
29 03:55 S 15 16.09 Thunderstorm in Vicinity CLR 22.3 14.5 61% 76.15 0.0
29 03:35 S 15 16.09 Fair CLR 22.7 14.5 60% 76.12 0.0
29 03:15 S 17 G 26 16.09 Fair CLR 23 14.5 59% 76.12 0.0
29 02:55 S 17 16.09 Fair CLR 22.7 14.8 61% 76.12 0.0
29 02:35 S 17 16.09 Fair CLR 22.5 15.2 63% 76.12 0.0
29 02:15 S 15 16.09 Fair CLR 22.5 15.5 65% 76.15 0.0
29 01:55 S 17 G 26 16.09 Fair CLR 22.7 15.8 65% 76.15 0.0
29 01:35 S 15 G 28 16.09 Fair CLR 23.2 15.8 63% 76.2 0.0
29 01:15 S 15 G 28 16.09 Fair CLR 23.5 16 63% 76.2 0.0
29 00:55 S 15 16.09 Fair CLR 23.6 16 29 23.5 63% 76.2 0.0
29 00:35 S 13 16.09 Fair CLR 23.7 16 62% 76.2 0.0
29 00:15 S 15 16.09 Fair CLR 23.5 16.3 64% 76.17 0.0
28 23:55 S 17 16.09 Fair CLR 23.6 16.5 65% 76.17 0.0
28 23:35 S 15 16.09 Fair CLR 23.6 16.7 65% 76.2 0.0
28 23:15 S 15 16.09 Fair CLR 23.5 17.3 68% 76.2 0.0
28 22:55 S 17 16.09 Fair CLR 23.8 17.6 68% 76.2 0.0
28 22:35 SE 15 G 26 16.09 Fair CLR 24 18 69% 25 76.2 0.0
28 22:15 S 17 16.09 Fair CLR 24.1 18.3 70% 25 76.2 0.0
28 21:55 SE 15 G 26 16.09 Fair CLR 24.2 18.6 71% 25 76.2 0.0
28 21:35 SE 15 16.09 Fair CLR 24 19 74% 25 76.2 0.0
28 21:15 SE 11 16.09 Fair CLR 24.1 19.3 75% 25 76.2 0.0
28 20:55 SE 11 16.09 Fair CLR 24.2 19.5 75% 25 76.17 0.0
28 20:35 SE 9 16.09 Fair CLR 24.7 19.6 73% 26 76.17 0.0
28 20:15 SE 7 16.09 Fair CLR 25.4 19.7 71% 26 76.17 0.0
28 19:55 SE 9 16.09 Fair CLR 26.5 19.6 66% 28 76.15 0.0
28 19:35 SE 11 16.09 Fair CLR 27.6 19.4 61% 29 76.17 0.0
28 19:15 SE 11 16.09 Fair CLR 28.5 19.6 59% 30 76.2 0.0
28 18:55 SE 11 16.09 Fair CLR 29.1 20 30.6 28.2 58% 31 76.2 0.0
28 18:35 SE 11 16.09 Fair CLR 29.6 19.6 55% 31 76.23 0.0
28 18:15 SE 11 16.09 Fair CLR 30 19.4 53% 32 76.23 0.0
28 17:55 SE 15 16.09 Fair CLR 30.2 19.3 52% 32 76.23 0.0
28 17:35 SE 15 16.09 Fair CLR 30.4 18.9 50% 32 76.23 0.0
28 17:15 SE 19 16.09 Fair CLR 30.6 18.7 49% 32 76.25 0.0
28 16:55 S 15 16.09 Fair CLR 30.4 18 47% 31 76.28 0.0
28 16:35 S 15 16.09 Fair CLR 30.5 18.7 49% 32 76.3 0.0
28 16:15 S 15 16.09 Fair CLR 30.3 19 51% 32 76.33 0.0
28 15:55 S 13 16.09 Fair CLR 30.3 18.7 50% 31 76.33 0.0
28 15:35 SW 15 16.09 Fair CLR 30.2 18.4 49% 31 76.35 0.0
28 15:15 S 15 G 28 16.09 Fair CLR 30 18.5 50% 31 76.35 0.0
28 14:55 S 17 G 26 16.09 Fair CLR 29.9 19 52% 31 76.38 0.0
28 14:35 S 17 16.09 Fair CLR 29.7 19 53% 31 76.4 0.0
28 14:15 S 13 G 28 16.09 Fair CLR 29.3 18.9 54% 31 76.4 0.0
28 13:55 S 19 G 26 16.09 Fair CLR 29.2 19 54% 30 76.4 0.0
28 13:35 S 13 16.09 Fair CLR 28.9 18.9 55% 30 76.43 0.0
28 13:15 S 13 16.09 Fair CLR 28.5 18.5 55% 30 76.48 0.0
28 12:55 S 15 16.09 Fair CLR 28.1 18.7 28.1 17.7 57% 29 76.48 0.0
28 12:35 S 17 16.09 Fair CLR 27.8 18.4 57% 29 76.5 0.0
28 12:15 S 15 16.09 Fair CLR 27.4 18.3 58% 28 76.53 0.0
28 11:55 S 11 16.09 Fair CLR 26.6 18.2 60% 28 76.53 0.0
28 11:35 S 15 16.09 Fair CLR 26.2 18 61% 27 76.56 0.0
28 11:15 SW 17 G 26 16.09 Fair CLR 25.7 17.3 60% 27 76.56 0.0
28 10:55 S 19 16.09 Fair CLR 25 17.4 63% 26 76.56 0.0
28 10:35 S 19 G 26 16.09 Fair CLR 24.4 17.3 65% 25 76.56 0.0
28 10:15 S 13 16.09 Fair CLR 24.5 17.6 66% 26 76.56 0.0
28 09:55 S 13 16.09 Fair CLR 23.7 17.3 67% 76.56 0.0
28 09:35 S 15 16.09 Fair CLR 23 17.7 72% 76.56 0.0
28 09:15 S 11 16.09 Fair CLR 21.9 17 74% 76.56 0.0
Date Time (cdt) Wind (kph) Vis. (km) Weather Sky Cond. Air Dwpt Max. Min. Relative Humidity Wind Chill (°C) Heat Index (°C) altimeter (cm) sea level (mb) 1 hr 3 hr 6 hr
6 hour
Temperature (ºC) Pressure Precipitation (cm)